sensor_id;sensor_type;location;lat;lon;timestamp;temperature;humidity
79065;DHT22;68469;51.502;7.462;2023-05-28T00:00:54;14.80;69.80
79065;DHT22;68469;51.502;7.462;2023-05-28T00:03:22;14.70;70.00
79065;DHT22;68469;51.502;7.462;2023-05-28T00:05:49;14.80;70.10
79065;DHT22;68469;51.502;7.462;2023-05-28T00:08:15;14.70;70.00
79065;DHT22;68469;51.502;7.462;2023-05-28T00:10:41;14.60;70.30
79065;DHT22;68469;51.502;7.462;2023-05-28T00:13:07;14.60;70.80
79065;DHT22;68469;51.502;7.462;2023-05-28T00:15:32;14.50;71.10
79065;DHT22;68469;51.502;7.462;2023-05-28T00:17:58;14.40;71.60
79065;DHT22;68469;51.502;7.462;2023-05-28T00:20:24;14.40;71.70
79065;DHT22;68469;51.502;7.462;2023-05-28T00:22:50;14.30;71.90
79065;DHT22;68469;51.502;7.462;2023-05-28T00:25:16;14.30;72.20
79065;DHT22;68469;51.502;7.462;2023-05-28T00:27:42;14.30;72.20
79065;DHT22;68469;51.502;7.462;2023-05-28T00:30:08;14.30;72.50
79065;DHT22;68469;51.502;7.462;2023-05-28T00:32:34;14.30;72.70
79065;DHT22;68469;51.502;7.462;2023-05-28T00:34:59;14.30;72.80
79065;DHT22;68469;51.502;7.462;2023-05-28T00:37:25;14.30;72.60
79065;DHT22;68469;51.502;7.462;2023-05-28T00:39:51;14.30;72.70
79065;DHT22;68469;51.502;7.462;2023-05-28T00:42:17;14.30;72.80
79065;DHT22;68469;51.502;7.462;2023-05-28T00:44:42;14.40;72.60
79065;DHT22;68469;51.502;7.462;2023-05-28T00:47:10;14.30;72.80
79065;DHT22;68469;51.502;7.462;2023-05-28T00:49:35;14.30;72.90
79065;DHT22;68469;51.502;7.462;2023-05-28T00:52:03;14.20;73.40
79065;DHT22;68469;51.502;7.462;2023-05-28T00:54:30;14.10;73.50
79065;DHT22;68469;51.502;7.462;2023-05-28T00:56:56;14.10;74.00
79065;DHT22;68469;51.502;7.462;2023-05-28T00:59:26;13.90;74.50
79065;DHT22;68469;51.502;7.462;2023-05-28T01:01:53;13.90;74.80
79065;DHT22;68469;51.502;7.462;2023-05-28T01:04:19;13.90;75.20
79065;DHT22;68469;51.502;7.462;2023-05-28T01:06:47;13.80;75.40
79065;DHT22;68469;51.502;7.462;2023-05-28T01:09:13;13.70;75.80
79065;DHT22;68469;51.502;7.462;2023-05-28T01:11:41;13.70;76.10
79065;DHT22;68469;51.502;7.462;2023-05-28T01:14:08;13.60;76.20
79065;DHT22;68469;51.502;7.462;2023-05-28T01:16:34;13.60;76.30
79065;DHT22;68469;51.502;7.462;2023-05-28T01:19:02;13.60;76.60
79065;DHT22;68469;51.502;7.462;2023-05-28T01:21:34;13.50;76.90
79065;DHT22;68469;51.502;7.462;2023-05-28T01:24:03;13.50;77.10
79065;DHT22;68469;51.502;7.462;2023-05-28T01:26:29;13.40;77.60
79065;DHT22;68469;51.502;7.462;2023-05-28T01:28:55;13.40;77.60
79065;DHT22;68469;51.502;7.462;2023-05-28T01:31:21;13.30;77.90
79065;DHT22;68469;51.502;7.462;2023-05-28T01:33:47;13.30;77.90
79065;DHT22;68469;51.502;7.462;2023-05-28T01:36:24;13.20;78.10
79065;DHT22;68469;51.502;7.462;2023-05-28T01:38:53;13.20;78.60
79065;DHT22;68469;51.502;7.462;2023-05-28T01:41:24;13.10;78.80
79065;DHT22;68469;51.502;7.462;2023-05-28T01:43:51;13.10;78.70
79065;DHT22;68469;51.502;7.462;2023-05-28T01:46:18;13.10;79.10
79065;DHT22;68469;51.502;7.462;2023-05-28T01:48:45;13.00;79.30
79065;DHT22;68469;51.502;7.462;2023-05-28T01:51:11;13.00;79.80
79065;DHT22;68469;51.502;7.462;2023-05-28T01:53:40;13.00;80.00
79065;DHT22;68469;51.502;7.462;2023-05-28T01:56:06;12.90;80.00
79065;DHT22;68469;51.502;7.462;2023-05-28T01:58:32;12.90;80.00
79065;DHT22;68469;51.502;7.462;2023-05-28T02:01:14;12.80;80.30
79065;DHT22;68469;51.502;7.462;2023-05-28T02:03:41;12.80;80.60
79065;DHT22;68469;51.502;7.462;2023-05-28T02:06:06;12.80;80.60
79065;DHT22;68469;51.502;7.462;2023-05-28T02:08:32;12.80;80.80
79065;DHT22;68469;51.502;7.462;2023-05-28T02:10:57;12.70;80.80
79065;DHT22;68469;51.502;7.462;2023-05-28T02:13:23;12.70;80.90
79065;DHT22;68469;51.502;7.462;2023-05-28T02:15:49;12.70;81.80
79065;DHT22;68469;51.502;7.462;2023-05-28T02:18:14;12.70;81.30
79065;DHT22;68469;51.502;7.462;2023-05-28T02:20:42;12.60;81.50
79065;DHT22;68469;51.502;7.462;2023-05-28T02:23:08;12.60;81.60
79065;DHT22;68469;51.502;7.462;2023-05-28T02:25:33;12.60;81.70
79065;DHT22;68469;51.502;7.462;2023-05-28T02:27:59;12.50;81.70
79065;DHT22;68469;51.502;7.462;2023-05-28T02:30:24;12.50;81.80
79065;DHT22;68469;51.502;7.462;2023-05-28T02:32:50;12.50;82.10
79065;DHT22;68469;51.502;7.462;2023-05-28T02:35:16;12.50;82.20
79065;DHT22;68469;51.502;7.462;2023-05-28T02:37:43;12.40;82.20
79065;DHT22;68469;51.502;7.462;2023-05-28T02:40:09;12.40;82.30
79065;DHT22;68469;51.502;7.462;2023-05-28T02:42:35;12.40;82.80
79065;DHT22;68469;51.502;7.462;2023-05-28T02:45:01;12.30;82.80
79065;DHT22;68469;51.502;7.462;2023-05-28T02:47:27;12.30;83.00
79065;DHT22;68469;51.502;7.462;2023-05-28T02:49:52;12.30;83.20
79065;DHT22;68469;51.502;7.462;2023-05-28T02:52:18;12.30;83.20
79065;DHT22;68469;51.502;7.462;2023-05-28T02:54:43;12.20;83.20
79065;DHT22;68469;51.502;7.462;2023-05-28T02:57:09;12.20;83.30
79065;DHT22;68469;51.502;7.462;2023-05-28T02:59:34;12.20;83.30
79065;DHT22;68469;51.502;7.462;2023-05-28T03:02:00;12.20;83.50
79065;DHT22;68469;51.502;7.462;2023-05-28T03:04:26;12.10;83.50
79065;DHT22;68469;51.502;7.462;2023-05-28T03:06:51;12.10;83.50
79065;DHT22;68469;51.502;7.462;2023-05-28T03:09:17;12.10;83.60
79065;DHT22;68469;51.502;7.462;2023-05-28T03:11:42;12.10;83.40
79065;DHT22;68469;51.502;7.462;2023-05-28T03:14:08;12.00;83.30
79065;DHT22;68469;51.502;7.462;2023-05-28T03:16:34;12.10;83.20
79065;DHT22;68469;51.502;7.462;2023-05-28T03:19:02;12.00;83.50
79065;DHT22;68469;51.502;7.462;2023-05-28T03:21:27;12.00;83.70
79065;DHT22;68469;51.502;7.462;2023-05-28T03:23:53;12.00;83.70
79065;DHT22;68469;51.502;7.462;2023-05-28T03:26:18;11.90;83.70
79065;DHT22;68469;51.502;7.462;2023-05-28T03:28:44;11.90;83.80
79065;DHT22;68469;51.502;7.462;2023-05-28T03:31:11;11.90;84.00
79065;DHT22;68469;51.502;7.462;2023-05-28T03:33:37;11.90;84.10
79065;DHT22;68469;51.502;7.462;2023-05-28T03:36:03;11.90;84.20
79065;DHT22;68469;51.502;7.462;2023-05-28T03:38:31;11.90;84.30
79065;DHT22;68469;51.502;7.462;2023-05-28T03:40:57;11.90;84.40
79065;DHT22;68469;51.502;7.462;2023-05-28T03:43:22;11.80;84.30
79065;DHT22;68469;51.502;7.462;2023-05-28T03:45:48;11.90;84.60
79065;DHT22;68469;51.502;7.462;2023-05-28T03:48:14;11.80;84.60
79065;DHT22;68469;51.502;7.462;2023-05-28T03:50:39;11.80;84.60
79065;DHT22;68469;51.502;7.462;2023-05-28T03:53:05;11.80;84.80
79065;DHT22;68469;51.502;7.462;2023-05-28T03:55:32;11.80;85.40
79065;DHT22;68469;51.502;7.462;2023-05-28T03:58:00;11.80;84.80
79065;DHT22;68469;51.502;7.462;2023-05-28T04:00:26;11.80;85.00
79065;DHT22;68469;51.502;7.462;2023-05-28T04:02:51;11.80;85.00
79065;DHT22;68469;51.502;7.462;2023-05-28T04:05:17;11.80;84.80
79065;DHT22;68469;51.502;7.462;2023-05-28T04:07:42;11.80;84.50
79065;DHT22;68469;51.502;7.462;2023-05-28T04:10:08;11.90;84.80
79065;DHT22;68469;51.502;7.462;2023-05-28T04:12:34;12.00;84.00
79065;DHT22;68469;51.502;7.462;2023-05-28T04:15:00;12.00;84.00
79065;DHT22;68469;51.502;7.462;2023-05-28T04:17:26;12.10;83.90
79065;DHT22;68469;51.502;7.462;2023-05-28T04:19:55;12.10;83.90
79065;DHT22;68469;51.502;7.462;2023-05-28T04:22:21;12.10;83.50
79065;DHT22;68469;51.502;7.462;2023-05-28T04:24:49;12.20;82.50
79065;DHT22;68469;51.502;7.462;2023-05-28T04:27:17;12.30;82.70
79065;DHT22;68469;51.502;7.462;2023-05-28T04:29:42;12.30;82.50
79065;DHT22;68469;51.502;7.462;2023-05-28T04:32:09;12.40;81.80
79065;DHT22;68469;51.502;7.462;2023-05-28T04:34:35;12.40;80.80
79065;DHT22;68469;51.502;7.462;2023-05-28T04:37:02;12.50;80.00
79065;DHT22;68469;51.502;7.462;2023-05-28T04:39:29;12.60;79.90
79065;DHT22;68469;51.502;7.462;2023-05-28T04:41:55;12.60;80.00
79065;DHT22;68469;51.502;7.462;2023-05-28T04:44:21;12.80;79.70
79065;DHT22;68469;51.502;7.462;2023-05-28T04:46:51;12.90;79.30
79065;DHT22;68469;51.502;7.462;2023-05-28T04:49:17;13.00;78.70
79065;DHT22;68469;51.502;7.462;2023-05-28T04:51:42;13.10;78.80
79065;DHT22;68469;51.502;7.462;2023-05-28T04:54:08;13.30;77.80
79065;DHT22;68469;51.502;7.462;2023-05-28T04:56:35;13.40;77.30
79065;DHT22;68469;51.502;7.462;2023-05-28T04:59:01;13.60;76.80
79065;DHT22;68469;51.502;7.462;2023-05-28T05:01:31;13.70;76.30
79065;DHT22;68469;51.502;7.462;2023-05-28T05:03:58;13.80;75.50
79065;DHT22;68469;51.502;7.462;2023-05-28T05:06:23;14.00;75.20
79065;DHT22;68469;51.502;7.462;2023-05-28T05:08:49;14.20;74.00
79065;DHT22;68469;51.502;7.462;2023-05-28T05:11:15;14.30;73.10
79065;DHT22;68469;51.502;7.462;2023-05-28T05:13:41;14.50;72.30
79065;DHT22;68469;51.502;7.462;2023-05-28T05:16:06;14.60;72.50
79065;DHT22;68469;51.502;7.462;2023-05-28T05:18:32;14.80;71.10
79065;DHT22;68469;51.502;7.462;2023-05-28T05:20:57;14.90;70.70
79065;DHT22;68469;51.502;7.462;2023-05-28T05:23:23;15.00;69.10
79065;DHT22;68469;51.502;7.462;2023-05-28T05:25:49;15.20;68.00
79065;DHT22;68469;51.502;7.462;2023-05-28T05:28:14;15.30;67.00
79065;DHT22;68469;51.502;7.462;2023-05-28T05:30:40;15.30;66.50
79065;DHT22;68469;51.502;7.462;2023-05-28T05:33:05;15.30;66.40
79065;DHT22;68469;51.502;7.462;2023-05-28T05:35:31;15.30;65.80
79065;DHT22;68469;51.502;7.462;2023-05-28T05:37:57;15.40;66.10
79065;DHT22;68469;51.502;7.462;2023-05-28T05:40:22;15.50;65.60
79065;DHT22;68469;51.502;7.462;2023-05-28T05:42:48;15.60;65.10
79065;DHT22;68469;51.502;7.462;2023-05-28T05:45:13;15.70;65.00
79065;DHT22;68469;51.502;7.462;2023-05-28T05:47:39;15.70;64.00
79065;DHT22;68469;51.502;7.462;2023-05-28T05:50:05;15.80;64.10
79065;DHT22;68469;51.502;7.462;2023-05-28T05:52:31;15.90;63.60
79065;DHT22;68469;51.502;7.462;2023-05-28T05:54:57;16.00;63.70
79065;DHT22;68469;51.502;7.462;2023-05-28T05:57:23;16.20;63.60
79065;DHT22;68469;51.502;7.462;2023-05-28T05:59:49;16.30;63.30
79065;DHT22;68469;51.502;7.462;2023-05-28T06:02:14;16.50;63.20
79065;DHT22;68469;51.502;7.462;2023-05-28T06:04:40;16.60;61.90
79065;DHT22;68469;51.502;7.462;2023-05-28T06:07:06;16.70;61.50
79065;DHT22;68469;51.502;7.462;2023-05-28T06:09:35;16.80;61.20
79065;DHT22;68469;51.502;7.462;2023-05-28T06:12:00;16.90;61.40
79065;DHT22;68469;51.502;7.462;2023-05-28T06:14:27;17.10;60.80
79065;DHT22;68469;51.502;7.462;2023-05-28T06:16:53;17.20;60.30
79065;DHT22;68469;51.502;7.462;2023-05-28T06:19:18;17.30;60.10
79065;DHT22;68469;51.502;7.462;2023-05-28T06:21:44;17.50;60.00
79065;DHT22;68469;51.502;7.462;2023-05-28T06:24:10;17.70;59.40
79065;DHT22;68469;51.502;7.462;2023-05-28T06:26:36;17.90;58.70
79065;DHT22;68469;51.502;7.462;2023-05-28T06:29:02;18.00;58.30
79065;DHT22;68469;51.502;7.462;2023-05-28T06:31:28;18.20;58.20
79065;DHT22;68469;51.502;7.462;2023-05-28T06:33:53;18.30;57.30
79065;DHT22;68469;51.502;7.462;2023-05-28T06:36:19;18.50;56.80
79065;DHT22;68469;51.502;7.462;2023-05-28T06:38:45;18.50;55.60
79065;DHT22;68469;51.502;7.462;2023-05-28T06:41:10;18.50;54.40
79065;DHT22;68469;51.502;7.462;2023-05-28T06:43:37;18.50;54.80
79065;DHT22;68469;51.502;7.462;2023-05-28T06:46:03;18.60;55.60
79065;DHT22;68469;51.502;7.462;2023-05-28T06:48:29;18.60;54.70
79065;DHT22;68469;51.502;7.462;2023-05-28T06:50:55;18.70;54.60
79065;DHT22;68469;51.502;7.462;2023-05-28T06:53:21;18.90;54.60
79065;DHT22;68469;51.502;7.462;2023-05-28T06:55:47;18.90;53.90
79065;DHT22;68469;51.502;7.462;2023-05-28T06:58:13;19.00;53.90
79065;DHT22;68469;51.502;7.462;2023-05-28T07:00:38;19.00;54.00
79065;DHT22;68469;51.502;7.462;2023-05-28T07:03:04;19.00;54.20
79065;DHT22;68469;51.502;7.462;2023-05-28T07:05:30;19.20;54.30
79065;DHT22;68469;51.502;7.462;2023-05-28T07:07:56;19.30;53.50
79065;DHT22;68469;51.502;7.462;2023-05-28T07:10:22;19.50;53.50
79065;DHT22;68469;51.502;7.462;2023-05-28T07:12:47;19.60;53.80
79065;DHT22;68469;51.502;7.462;2023-05-28T07:15:13;19.80;52.10
79065;DHT22;68469;51.502;7.462;2023-05-28T07:17:41;19.80;52.30
79065;DHT22;68469;51.502;7.462;2023-05-28T07:20:06;19.70;52.30
79065;DHT22;68469;51.502;7.462;2023-05-28T07:22:32;19.60;53.40
79065;DHT22;68469;51.502;7.462;2023-05-28T07:24:58;19.60;53.70
79065;DHT22;68469;51.502;7.462;2023-05-28T07:27:24;19.80;53.20
79065;DHT22;68469;51.502;7.462;2023-05-28T07:29:49;19.90;53.20
79065;DHT22;68469;51.502;7.462;2023-05-28T07:32:15;19.90;52.50
79065;DHT22;68469;51.502;7.462;2023-05-28T07:34:41;20.00;52.00
79065;DHT22;68469;51.502;7.462;2023-05-28T07:37:06;20.00;51.40
79065;DHT22;68469;51.502;7.462;2023-05-28T07:39:32;20.10;51.90
79065;DHT22;68469;51.502;7.462;2023-05-28T07:41:58;20.30;52.40
79065;DHT22;68469;51.502;7.462;2023-05-28T07:44:23;20.60;52.70
79065;DHT22;68469;51.502;7.462;2023-05-28T07:46:49;20.70;51.20
79065;DHT22;68469;51.502;7.462;2023-05-28T07:49:15;20.70;49.10
79065;DHT22;68469;51.502;7.462;2023-05-28T07:51:42;20.70;49.60
79065;DHT22;68469;51.502;7.462;2023-05-28T07:54:08;20.70;50.10
79065;DHT22;68469;51.502;7.462;2023-05-28T07:56:33;20.60;49.70
79065;DHT22;68469;51.502;7.462;2023-05-28T07:58:59;20.60;50.50
79065;DHT22;68469;51.502;7.462;2023-05-28T08:01:24;20.50;49.50
79065;DHT22;68469;51.502;7.462;2023-05-28T08:03:50;20.60;50.70
79065;DHT22;68469;51.502;7.462;2023-05-28T08:06:19;20.70;48.90
79065;DHT22;68469;51.502;7.462;2023-05-28T08:08:46;20.80;49.40
79065;DHT22;68469;51.502;7.462;2023-05-28T08:11:11;20.90;48.70
79065;DHT22;68469;51.502;7.462;2023-05-28T08:13:39;21.00;49.30
79065;DHT22;68469;51.502;7.462;2023-05-28T08:16:05;21.10;48.10
79065;DHT22;68469;51.502;7.462;2023-05-28T08:18:31;21.00;47.80
79065;DHT22;68469;51.502;7.462;2023-05-28T08:20:57;20.90;47.80
79065;DHT22;68469;51.502;7.462;2023-05-28T08:23:22;20.90;48.60
79065;DHT22;68469;51.502;7.462;2023-05-28T08:25:48;21.00;48.60
79065;DHT22;68469;51.502;7.462;2023-05-28T08:28:16;21.10;47.90
79065;DHT22;68469;51.502;7.462;2023-05-28T08:30:42;21.10;47.80
79065;DHT22;68469;51.502;7.462;2023-05-28T08:33:08;21.10;47.80
79065;DHT22;68469;51.502;7.462;2023-05-28T08:35:33;21.10;47.90
79065;DHT22;68469;51.502;7.462;2023-05-28T08:37:59;21.20;48.10
79065;DHT22;68469;51.502;7.462;2023-05-28T08:40:26;21.30;47.70
79065;DHT22;68469;51.502;7.462;2023-05-28T08:42:52;21.30;48.00
79065;DHT22;68469;51.502;7.462;2023-05-28T08:45:18;21.30;47.20
79065;DHT22;68469;51.502;7.462;2023-05-28T08:47:44;21.40;47.30
79065;DHT22;68469;51.502;7.462;2023-05-28T08:50:12;21.60;48.40
79065;DHT22;68469;51.502;7.462;2023-05-28T08:52:40;21.80;47.90
79065;DHT22;68469;51.502;7.462;2023-05-28T08:55:07;21.90;45.10
79065;DHT22;68469;51.502;7.462;2023-05-28T08:57:33;22.00;45.10
79065;DHT22;68469;51.502;7.462;2023-05-28T08:59:59;22.10;45.70
79065;DHT22;68469;51.502;7.462;2023-05-28T09:02:33;22.30;46.10
79065;DHT22;68469;51.502;7.462;2023-05-28T09:04:59;22.40;45.50
79065;DHT22;68469;51.502;7.462;2023-05-28T09:07:25;22.50;45.60
79065;DHT22;68469;51.502;7.462;2023-05-28T09:09:52;22.60;45.60
79065;DHT22;68469;51.502;7.462;2023-05-28T09:12:22;22.80;45.10
79065;DHT22;68469;51.502;7.462;2023-05-28T09:14:50;23.00;45.70
79065;DHT22;68469;51.502;7.462;2023-05-28T09:17:35;23.10;44.50
79065;DHT22;68469;51.502;7.462;2023-05-28T09:20:08;23.30;44.20
79065;DHT22;68469;51.502;7.462;2023-05-28T09:22:35;23.50;44.50
79065;DHT22;68469;51.502;7.462;2023-05-28T09:25:01;23.60;44.40
79065;DHT22;68469;51.502;7.462;2023-05-28T09:27:27;23.60;43.70
79065;DHT22;68469;51.502;7.462;2023-05-28T09:29:52;23.60;43.20
79065;DHT22;68469;51.502;7.462;2023-05-28T09:32:19;23.50;43.80
79065;DHT22;68469;51.502;7.462;2023-05-28T09:34:51;23.60;43.20
79065;DHT22;68469;51.502;7.462;2023-05-28T09:37:17;23.70;44.00
79065;DHT22;68469;51.502;7.462;2023-05-28T09:39:43;23.90;42.90
79065;DHT22;68469;51.502;7.462;2023-05-28T09:42:10;24.00;42.90
79065;DHT22;68469;51.502;7.462;2023-05-28T09:44:37;24.20;42.80
79065;DHT22;68469;51.502;7.462;2023-05-28T09:47:17;24.20;42.20
79065;DHT22;68469;51.502;7.462;2023-05-28T09:49:47;24.20;41.80
79065;DHT22;68469;51.502;7.462;2023-05-28T09:52:22;24.20;42.50
79065;DHT22;68469;51.502;7.462;2023-05-28T09:54:53;24.40;42.10
79065;DHT22;68469;51.502;7.462;2023-05-28T09:57:24;24.60;42.00
79065;DHT22;68469;51.502;7.462;2023-05-28T09:59:56;24.60;41.00
79065;DHT22;68469;51.502;7.462;2023-05-28T10:02:36;24.70;42.70
79065;DHT22;68469;51.502;7.462;2023-05-28T10:05:06;25.00;41.20
79065;DHT22;68469;51.502;7.462;2023-05-28T10:07:33;25.20;41.80
79065;DHT22;68469;51.502;7.462;2023-05-28T10:10:01;25.40;40.20
79065;DHT22;68469;51.502;7.462;2023-05-28T10:12:30;25.60;38.50
79065;DHT22;68469;51.502;7.462;2023-05-28T10:14:56;25.60;37.40
79065;DHT22;68469;51.502;7.462;2023-05-28T10:17:23;25.60;37.00
79065;DHT22;68469;51.502;7.462;2023-05-28T10:19:49;25.50;35.80
79065;DHT22;68469;51.502;7.462;2023-05-28T10:22:16;25.60;37.10
79065;DHT22;68469;51.502;7.462;2023-05-28T10:24:42;25.80;36.90
79065;DHT22;68469;51.502;7.462;2023-05-28T10:27:15;26.20;36.80
79065;DHT22;68469;51.502;7.462;2023-05-28T10:29:45;26.60;35.80
79065;DHT22;68469;51.502;7.462;2023-05-28T10:32:17;26.90;34.80
79065;DHT22;68469;51.502;7.462;2023-05-28T10:34:43;27.00;34.60
79065;DHT22;68469;51.502;7.462;2023-05-28T10:37:10;27.70;34.50
79065;DHT22;68469;51.502;7.462;2023-05-28T10:39:43;28.00;33.90
79065;DHT22;68469;51.502;7.462;2023-05-28T10:42:17;28.30;32.60
79065;DHT22;68469;51.502;7.462;2023-05-28T10:47:32;29.40;29.50
79065;DHT22;68469;51.502;7.462;2023-05-28T10:52:31;31.20;29.80
79065;DHT22;68469;51.502;7.462;2023-05-28T10:54:56;32.20;28.10
79065;DHT22;68469;51.502;7.462;2023-05-28T10:57:22;33.00;27.70
79065;DHT22;68469;51.502;7.462;2023-05-28T10:59:58;34.10;27.60
79065;DHT22;68469;51.502;7.462;2023-05-28T11:02:26;35.00;25.60
79065;DHT22;68469;51.502;7.462;2023-05-28T11:04:59;35.90;25.30
79065;DHT22;68469;51.502;7.462;2023-05-28T11:07:32;35.30;24.60
79065;DHT22;68469;51.502;7.462;2023-05-28T11:10:00;36.00;24.30
79065;DHT22;68469;51.502;7.462;2023-05-28T11:12:26;37.00;24.60
79065;DHT22;68469;51.502;7.462;2023-05-28T11:14:53;37.60;24.10
79065;DHT22;68469;51.502;7.462;2023-05-28T11:17:18;37.90;23.30
79065;DHT22;68469;51.502;7.462;2023-05-28T11:19:46;38.00;23.30
79065;DHT22;68469;51.502;7.462;2023-05-28T11:22:13;38.70;24.30
79065;DHT22;68469;51.502;7.462;2023-05-28T11:24:56;39.20;23.80
79065;DHT22;68469;51.502;7.462;2023-05-28T11:27:29;39.90;23.60
79065;DHT22;68469;51.502;7.462;2023-05-28T11:29:56;39.90;21.90
79065;DHT22;68469;51.502;7.462;2023-05-28T11:32:23;39.70;22.00
79065;DHT22;68469;51.502;7.462;2023-05-28T11:34:50;39.80;22.00
79065;DHT22;68469;51.502;7.462;2023-05-28T11:37:21;39.70;21.80
79065;DHT22;68469;51.502;7.462;2023-05-28T11:39:52;39.50;21.90
79065;DHT22;68469;51.502;7.462;2023-05-28T11:42:19;39.30;22.50
79065;DHT22;68469;51.502;7.462;2023-05-28T11:44:45;39.20;22.30
79065;DHT22;68469;51.502;7.462;2023-05-28T11:47:11;39.00;22.10
79065;DHT22;68469;51.502;7.462;2023-05-28T11:49:37;38.30;22.10
79065;DHT22;68469;51.502;7.462;2023-05-28T11:52:03;38.40;22.40
79065;DHT22;68469;51.502;7.462;2023-05-28T11:54:29;38.50;23.20
79065;DHT22;68469;51.502;7.462;2023-05-28T11:56:54;39.10;23.50
79065;DHT22;68469;51.502;7.462;2023-05-28T11:59:21;39.60;21.30
79065;DHT22;68469;51.502;7.462;2023-05-28T12:01:47;39.90;21.70
79065;DHT22;68469;51.502;7.462;2023-05-28T12:04:12;40.00;21.40
79065;DHT22;68469;51.502;7.462;2023-05-28T12:06:51;40.40;21.70
79065;DHT22;68469;51.502;7.462;2023-05-28T12:09:17;38.60;21.60
79065;DHT22;68469;51.502;7.462;2023-05-28T12:11:42;38.50;22.10
79065;DHT22;68469;51.502;7.462;2023-05-28T12:14:11;37.40;22.00
79065;DHT22;68469;51.502;7.462;2023-05-28T12:16:44;37.20;22.70
79065;DHT22;68469;51.502;7.462;2023-05-28T12:19:14;37.90;22.50
79065;DHT22;68469;51.502;7.462;2023-05-28T12:21:39;38.40;22.80
79065;DHT22;68469;51.502;7.462;2023-05-28T12:24:14;38.70;22.80
79065;DHT22;68469;51.502;7.462;2023-05-28T12:26:43;38.30;22.10
79065;DHT22;68469;51.502;7.462;2023-05-28T12:29:09;37.30;22.80
79065;DHT22;68469;51.502;7.462;2023-05-28T12:31:35;36.30;23.20
79065;DHT22;68469;51.502;7.462;2023-05-28T12:34:01;35.70;24.10
79065;DHT22;68469;51.502;7.462;2023-05-28T12:36:26;35.60;24.20
79065;DHT22;68469;51.502;7.462;2023-05-28T12:38:52;35.30;24.60
79065;DHT22;68469;51.502;7.462;2023-05-28T12:41:18;35.00;25.10
79065;DHT22;68469;51.502;7.462;2023-05-28T12:43:43;34.20;25.30
79065;DHT22;68469;51.502;7.462;2023-05-28T12:46:10;33.40;25.90
79065;DHT22;68469;51.502;7.462;2023-05-28T12:48:35;31.90;26.80
79065;DHT22;68469;51.502;7.462;2023-05-28T12:51:02;30.80;27.80
79065;DHT22;68469;51.502;7.462;2023-05-28T12:53:28;29.90;28.80
79065;DHT22;68469;51.502;7.462;2023-05-28T12:55:54;29.20;29.40
79065;DHT22;68469;51.502;7.462;2023-05-28T12:58:20;28.30;30.40
79065;DHT22;68469;51.502;7.462;2023-05-28T13:00:46;27.50;31.50
79065;DHT22;68469;51.502;7.462;2023-05-28T13:03:12;27.00;31.70
79065;DHT22;68469;51.502;7.462;2023-05-28T13:05:38;26.70;32.80
79065;DHT22;68469;51.502;7.462;2023-05-28T13:08:03;26.40;32.50
79065;DHT22;68469;51.502;7.462;2023-05-28T13:10:29;26.00;33.00
79065;DHT22;68469;51.502;7.462;2023-05-28T13:12:55;25.60;33.60
79065;DHT22;68469;51.502;7.462;2023-05-28T13:15:21;25.20;33.70
79065;DHT22;68469;51.502;7.462;2023-05-28T13:17:46;24.90;34.60
79065;DHT22;68469;51.502;7.462;2023-05-28T13:20:12;24.70;35.10
79065;DHT22;68469;51.502;7.462;2023-05-28T13:22:38;24.60;35.20
79065;DHT22;68469;51.502;7.462;2023-05-28T13:25:05;24.50;34.20
79065;DHT22;68469;51.502;7.462;2023-05-28T13:27:30;24.30;35.20
79065;DHT22;68469;51.502;7.462;2023-05-28T13:29:57;24.20;36.10
79065;DHT22;68469;51.502;7.462;2023-05-28T13:32:22;24.10;36.60
79065;DHT22;68469;51.502;7.462;2023-05-28T13:34:48;24.00;37.10
79065;DHT22;68469;51.502;7.462;2023-05-28T13:37:13;24.00;37.60
79065;DHT22;68469;51.502;7.462;2023-05-28T13:39:39;24.00;37.60
79065;DHT22;68469;51.502;7.462;2023-05-28T13:42:06;24.00;37.30
79065;DHT22;68469;51.502;7.462;2023-05-28T13:44:34;24.00;37.30
79065;DHT22;68469;51.502;7.462;2023-05-28T13:47:00;23.90;37.50
79065;DHT22;68469;51.502;7.462;2023-05-28T13:49:26;23.80;37.50
79065;DHT22;68469;51.502;7.462;2023-05-28T13:51:51;23.80;37.90
79065;DHT22;68469;51.502;7.462;2023-05-28T13:54:17;23.70;37.90
79065;DHT22;68469;51.502;7.462;2023-05-28T13:56:43;23.70;38.50
79065;DHT22;68469;51.502;7.462;2023-05-28T13:59:08;23.70;38.60
79065;DHT22;68469;51.502;7.462;2023-05-28T14:01:34;23.60;38.70
79065;DHT22;68469;51.502;7.462;2023-05-28T14:04:01;23.60;38.60
79065;DHT22;68469;51.502;7.462;2023-05-28T14:06:27;23.50;39.00
79065;DHT22;68469;51.502;7.462;2023-05-28T14:08:52;23.50;39.40
79065;DHT22;68469;51.502;7.462;2023-05-28T14:11:18;23.50;39.10
79065;DHT22;68469;51.502;7.462;2023-05-28T14:13:44;23.50;39.20
79065;DHT22;68469;51.502;7.462;2023-05-28T14:16:09;23.50;38.60
79065;DHT22;68469;51.502;7.462;2023-05-28T14:18:35;23.50;39.20
79065;DHT22;68469;51.502;7.462;2023-05-28T14:21:01;23.50;39.00
79065;DHT22;68469;51.502;7.462;2023-05-28T14:23:26;23.60;39.80
79065;DHT22;68469;51.502;7.462;2023-05-28T14:25:52;23.60;38.70
79065;DHT22;68469;51.502;7.462;2023-05-28T14:28:17;23.70;38.70
79065;DHT22;68469;51.502;7.462;2023-05-28T14:30:43;23.70;38.50
79065;DHT22;68469;51.502;7.462;2023-05-28T14:33:12;23.60;38.70
79065;DHT22;68469;51.502;7.462;2023-05-28T14:35:38;23.60;38.50
79065;DHT22;68469;51.502;7.462;2023-05-28T14:38:04;23.60;38.40
79065;DHT22;68469;51.502;7.462;2023-05-28T14:40:29;23.60;39.30
79065;DHT22;68469;51.502;7.462;2023-05-28T14:42:55;23.50;39.50
79065;DHT22;68469;51.502;7.462;2023-05-28T14:45:21;23.50;39.70
79065;DHT22;68469;51.502;7.462;2023-05-28T14:47:46;23.60;40.10
79065;DHT22;68469;51.502;7.462;2023-05-28T14:50:12;23.60;40.00
79065;DHT22;68469;51.502;7.462;2023-05-28T14:52:38;23.70;39.60
79065;DHT22;68469;51.502;7.462;2023-05-28T14:55:04;23.70;39.20
79065;DHT22;68469;51.502;7.462;2023-05-28T14:57:29;23.70;39.90
79065;DHT22;68469;51.502;7.462;2023-05-28T15:00:00;23.70;40.10
79065;DHT22;68469;51.502;7.462;2023-05-28T15:02:27;23.60;40.20
79065;DHT22;68469;51.502;7.462;2023-05-28T15:04:53;23.60;40.40
79065;DHT22;68469;51.502;7.462;2023-05-28T15:07:18;23.50;40.30
79065;DHT22;68469;51.502;7.462;2023-05-28T15:09:44;23.50;41.10
79065;DHT22;68469;51.502;7.462;2023-05-28T15:12:11;23.40;41.50
79065;DHT22;68469;51.502;7.462;2023-05-28T15:14:37;23.30;42.00
79065;DHT22;68469;51.502;7.462;2023-05-28T15:17:03;23.30;42.30
79065;DHT22;68469;51.502;7.462;2023-05-28T15:19:29;23.30;42.00
79065;DHT22;68469;51.502;7.462;2023-05-28T15:21:55;23.20;41.40
79065;DHT22;68469;51.502;7.462;2023-05-28T15:24:20;23.20;41.60
79065;DHT22;68469;51.502;7.462;2023-05-28T15:26:46;23.10;41.80
79065;DHT22;68469;51.502;7.462;2023-05-28T15:29:14;23.10;42.30
79065;DHT22;68469;51.502;7.462;2023-05-28T15:31:41;23.10;42.80